sensor_id;sensor_type;location;lat;lon;timestamp;pressure;altitude;pressure_sealevel;temperature;humidity
30421;BME280;17218;54.070;10.012;2022-08-19T00:00:27;101027.41;;;21.05;100.00
30421;BME280;17218;54.070;10.012;2022-08-19T00:02:54;101036.03;;;21.09;100.00
30421;BME280;17218;54.070;10.012;2022-08-19T00:05:22;101036.88;;;21.09;100.00
30421;BME280;17218;54.070;10.012;2022-08-19T00:07:49;101035.66;;;21.17;100.00
30421;BME280;17218;54.070;10.012;2022-08-19T00:10:17;101031.03;;;21.22;100.00
30421;BME280;17218;54.070;10.012;2022-08-19T00:12:44;101028.94;;;21.29;100.00
30421;BME280;17218;54.070;10.012;2022-08-19T00:15:12;101030.75;;;21.28;100.00
30421;BME280;17218;54.070;10.012;2022-08-19T00:17:39;101022.06;;;21.26;100.00
30421;BME280;17218;54.070;10.012;2022-08-19T00:20:08;101016.47;;;21.32;100.00
30421;BME280;17218;54.070;10.012;2022-08-19T00:22:37;101009.34;;;21.35;100.00
30421;BME280;17218;54.070;10.012;2022-08-19T00:25:05;100997.13;;;21.33;100.00
30421;BME280;17218;54.070;10.012;2022-08-19T00:27:31;101000.59;;;21.34;100.00
30421;BME280;17218;54.070;10.012;2022-08-19T00:29:58;100989.88;;;21.19;100.00
30421;BME280;17218;54.070;10.012;2022-08-19T00:32:25;101005.13;;;21.13;100.00
30421;BME280;17218;54.070;10.012;2022-08-19T00:34:52;100998.44;;;21.05;100.00
30421;BME280;17218;54.070;10.012;2022-08-19T00:37:19;100999.44;;;21.03;100.00
30421;BME280;17218;54.070;10.012;2022-08-19T00:39:49;100991.47;;;21.04;100.00
30421;BME280;17218;54.070;10.012;2022-08-19T00:42:17;100997.47;;;21.08;100.00
30421;BME280;17218;54.070;10.012;2022-08-19T00:44:43;101000.66;;;20.95;100.00
30421;BME280;17218;54.070;10.012;2022-08-19T00:47:10;101004.16;;;20.96;100.00
30421;BME280;17218;54.070;10.012;2022-08-19T00:49:40;101000.41;;;20.81;100.00
30421;BME280;17218;54.070;10.012;2022-08-19T00:52:11;101003.19;;;20.78;100.00
30421;BME280;17218;54.070;10.012;2022-08-19T00:54:40;101001.19;;;20.83;100.00
30421;BME280;17218;54.070;10.012;2022-08-19T00:57:11;100989.75;;;20.84;100.00
30421;BME280;17218;54.070;10.012;2022-08-19T00:59:39;100993.16;;;20.86;100.00
30421;BME280;17218;54.070;10.012;2022-08-19T01:02:06;100993.31;;;20.83;100.00
30421;BME280;17218;54.070;10.012;2022-08-19T01:04:33;100995.03;;;20.84;100.00
30421;BME280;17218;54.070;10.012;2022-08-19T01:07:01;100998.88;;;20.77;100.00
30421;BME280;17218;54.070;10.012;2022-08-19T01:09:28;100990.13;;;20.76;100.00
30421;BME280;17218;54.070;10.012;2022-08-19T01:11:56;100978.88;;;20.72;100.00
30421;BME280;17218;54.070;10.012;2022-08-19T01:14:24;100975.94;;;20.79;100.00
30421;BME280;17218;54.070;10.012;2022-08-19T01:16:52;100967.22;;;20.78;100.00
30421;BME280;17218;54.070;10.012;2022-08-19T01:19:26;100970.81;;;20.76;100.00
30421;BME280;17218;54.070;10.012;2022-08-19T01:21:57;100970.28;;;20.69;100.00
30421;BME280;17218;54.070;10.012;2022-08-19T01:24:28;100971.25;;;20.66;100.00
30421;BME280;17218;54.070;10.012;2022-08-19T01:26:56;100990.16;;;20.55;100.00
30421;BME280;17218;54.070;10.012;2022-08-19T01:29:22;100992.72;;;20.57;100.00
30421;BME280;17218;54.070;10.012;2022-08-19T01:31:49;100986.63;;;20.56;100.00
30421;BME280;17218;54.070;10.012;2022-08-19T01:34:17;100988.97;;;20.62;100.00
30421;BME280;17218;54.070;10.012;2022-08-19T01:36:46;100981.78;;;20.66;100.00
30421;BME280;17218;54.070;10.012;2022-08-19T01:39:16;100970.19;;;20.70;100.00
30421;BME280;17218;54.070;10.012;2022-08-19T01:41:44;100968.28;;;20.74;100.00
30421;BME280;17218;54.070;10.012;2022-08-19T01:44:11;100964.56;;;20.78;100.00
30421;BME280;17218;54.070;10.012;2022-08-19T01:46:38;100953.81;;;20.83;100.00
30421;BME280;17218;54.070;10.012;2022-08-19T01:49:06;100948.34;;;20.68;100.00
30421;BME280;17218;54.070;10.012;2022-08-19T01:51:33;100949.41;;;20.64;100.00
30421;BME280;17218;54.070;10.012;2022-08-19T01:54:00;100956.41;;;20.65;100.00
30421;BME280;17218;54.070;10.012;2022-08-19T01:56:27;100956.53;;;20.62;100.00
30421;BME280;17218;54.070;10.012;2022-08-19T01:58:58;100957.09;;;20.49;100.00
30421;BME280;17218;54.070;10.012;2022-08-19T02:01:26;100958.03;;;20.48;100.00
30421;BME280;17218;54.070;10.012;2022-08-19T02:03:54;100956.31;;;20.47;100.00
30421;BME280;17218;54.070;10.012;2022-08-19T02:06:20;100951.75;;;20.51;100.00
30421;BME280;17218;54.070;10.012;2022-08-19T02:08:47;100945.72;;;20.49;100.00
30421;BME280;17218;54.070;10.012;2022-08-19T02:11:20;100934.28;;;20.50;100.00
30421;BME280;17218;54.070;10.012;2022-08-19T02:13:47;100935.16;;;20.50;100.00
30421;BME280;17218;54.070;10.012;2022-08-19T02:16:16;100924.47;;;20.54;100.00
30421;BME280;17218;54.070;10.012;2022-08-19T02:18:43;100924.38;;;20.55;100.00
30421;BME280;17218;54.070;10.012;2022-08-19T02:21:09;100927.81;;;20.57;100.00
30421;BME280;17218;54.070;10.012;2022-08-19T02:23:36;100934.19;;;20.52;100.00
30421;BME280;17218;54.070;10.012;2022-08-19T02:26:04;100928.88;;;20.34;100.00
30421;BME280;17218;54.070;10.012;2022-08-19T02:28:30;100940.38;;;20.31;100.00
30421;BME280;17218;54.070;10.012;2022-08-19T02:30:57;100933.13;;;20.36;100.00
30421;BME280;17218;54.070;10.012;2022-08-19T02:33:27;100939.19;;;20.38;100.00
30421;BME280;17218;54.070;10.012;2022-08-19T02:35:53;100932.50;;;20.31;100.00
30421;BME280;17218;54.070;10.012;2022-08-19T02:38:20;100926.06;;;20.18;100.00
30421;BME280;17218;54.070;10.012;2022-08-19T02:40:53;100929.28;;;20.24;100.00
30421;BME280;17218;54.070;10.012;2022-08-19T02:43:20;100930.78;;;20.30;100.00
30421;BME280;17218;54.070;10.012;2022-08-19T02:45:47;100920.19;;;20.32;100.00
30421;BME280;17218;54.070;10.012;2022-08-19T02:48:15;100926.19;;;20.35;100.00
30421;BME280;17218;54.070;10.012;2022-08-19T02:50:45;100933.44;;;20.30;100.00
30421;BME280;17218;54.070;10.012;2022-08-19T02:53:12;100936.97;;;20.29;100.00
30421;BME280;17218;54.070;10.012;2022-08-19T02:55:43;100930.78;;;20.30;100.00
30421;BME280;17218;54.070;10.012;2022-08-19T02:58:11;100929.06;;;20.29;100.00
30421;BME280;17218;54.070;10.012;2022-08-19T03:00:42;100930.72;;;20.32;100.00
30421;BME280;17218;54.070;10.012;2022-08-19T03:03:09;100927.88;;;20.17;100.00
30421;BME280;17218;54.070;10.012;2022-08-19T03:05:35;100936.53;;;20.19;100.00
30421;BME280;17218;54.070;10.012;2022-08-19T03:08:04;100939.09;;;20.21;100.00
30421;BME280;17218;54.070;10.012;2022-08-19T03:10:31;100939.88;;;20.23;100.00
30421;BME280;17218;54.070;10.012;2022-08-19T03:12:57;100945.88;;;20.26;100.00
30421;BME280;17218;54.070;10.012;2022-08-19T03:15:24;100938.38;;;20.17;100.00
30421;BME280;17218;54.070;10.012;2022-08-19T03:17:51;100945.34;;;20.18;100.00
30421;BME280;17218;54.070;10.012;2022-08-19T03:20:18;100947.00;;;20.21;100.00
30421;BME280;17218;54.070;10.012;2022-08-19T03:22:44;100934.47;;;20.26;100.00
30421;BME280;17218;54.070;10.012;2022-08-19T03:25:12;100930.00;;;20.28;100.00
30421;BME280;17218;54.070;10.012;2022-08-19T03:27:39;100932.84;;;20.23;100.00
30421;BME280;17218;54.070;10.012;2022-08-19T03:30:06;100926.75;;;20.23;100.00
30421;BME280;17218;54.070;10.012;2022-08-19T03:32:34;100935.84;;;20.16;100.00
30421;BME280;17218;54.070;10.012;2022-08-19T03:35:00;100943.13;;;20.09;100.00
30421;BME280;17218;54.070;10.012;2022-08-19T03:37:27;100944.78;;;20.11;100.00
30421;BME280;17218;54.070;10.012;2022-08-19T03:39:54;100959.50;;;20.16;100.00
30421;BME280;17218;54.070;10.012;2022-08-19T03:42:22;100952.38;;;20.18;100.00
30421;BME280;17218;54.070;10.012;2022-08-19T03:44:48;100955.72;;;20.21;100.00
30421;BME280;17218;54.070;10.012;2022-08-19T03:47:15;100956.66;;;20.20;100.00
30421;BME280;17218;54.070;10.012;2022-08-19T03:49:42;100968.09;;;20.19;100.00
30421;BME280;17218;54.070;10.012;2022-08-19T03:52:09;100983.03;;;20.19;100.00
30421;BME280;17218;54.070;10.012;2022-08-19T03:54:36;100983.94;;;20.18;100.00
30421;BME280;17218;54.070;10.012;2022-08-19T03:57:03;100988.47;;;20.14;100.00
30421;BME280;17218;54.070;10.012;2022-08-19T03:59:34;100989.66;;;20.07;100.00
30421;BME280;17218;54.070;10.012;2022-08-19T04:02:05;101000.53;;;19.97;100.00
30421;BME280;17218;54.070;10.012;2022-08-19T04:04:34;101009.69;;;19.88;100.00
30421;BME280;17218;54.070;10.012;2022-08-19T04:07:00;101023.84;;;19.84;100.00
30421;BME280;17218;54.070;10.012;2022-08-19T04:09:27;101027.09;;;19.91;100.00
30421;BME280;17218;54.070;10.012;2022-08-19T04:11:55;101026.78;;;19.99;100.00
30421;BME280;17218;54.070;10.012;2022-08-19T04:14:25;101030.91;;;20.06;100.00
30421;BME280;17218;54.070;10.012;2022-08-19T04:16:56;101038.50;;;20.12;100.00
30421;BME280;17218;54.070;10.012;2022-08-19T04:19:23;101026.94;;;20.17;100.00
30421;BME280;17218;54.070;10.012;2022-08-19T04:21:51;101022.72;;;20.12;100.00
30421;BME280;17218;54.070;10.012;2022-08-19T04:24:19;101031.63;;;20.10;100.00
30421;BME280;17218;54.070;10.012;2022-08-19T04:26:46;101032.44;;;20.10;100.00
30421;BME280;17218;54.070;10.012;2022-08-19T04:29:15;101041.19;;;20.11;100.00
30421;BME280;17218;54.070;10.012;2022-08-19T04:31:43;101038.63;;;20.09;100.00
30421;BME280;17218;54.070;10.012;2022-08-19T04:34:14;101039.44;;;20.11;100.00
30421;BME280;17218;54.070;10.012;2022-08-19T04:36:42;101052.31;;;20.18;100.00
30421;BME280;17218;54.070;10.012;2022-08-19T04:39:11;101042.50;;;20.21;100.00
30421;BME280;17218;54.070;10.012;2022-08-19T04:41:38;101051.31;;;20.20;100.00
30421;BME280;17218;54.070;10.012;2022-08-19T04:44:22;101049.41;;;20.24;100.00
30421;BME280;17218;54.070;10.012;2022-08-19T04:46:50;101042.25;;;20.28;100.00
30421;BME280;17218;54.070;10.012;2022-08-19T04:49:20;101035.94;;;20.32;100.00
30421;BME280;17218;54.070;10.012;2022-08-19T04:51:49;101029.81;;;20.31;100.00
30421;BME280;17218;54.070;10.012;2022-08-19T04:54:18;101037.56;;;20.34;100.00
30421;BME280;17218;54.070;10.012;2022-08-19T04:56:48;101027.59;;;20.22;100.00
30421;BME280;17218;54.070;10.012;2022-08-19T04:59:18;101036.47;;;20.19;100.00
30421;BME280;17218;54.070;10.012;2022-08-19T05:01:46;101045.09;;;20.23;100.00
30421;BME280;17218;54.070;10.012;2022-08-19T05:04:15;101036.13;;;20.27;100.00
30421;BME280;17218;54.070;10.012;2022-08-19T05:06:44;101038.50;;;20.33;100.00
30421;BME280;17218;54.070;10.012;2022-08-19T05:09:12;101036.59;;;20.37;100.00
30421;BME280;17218;54.070;10.012;2022-08-19T05:11:39;101038.69;;;20.29;100.00
30421;BME280;17218;54.070;10.012;2022-08-19T05:14:06;101044.31;;;20.21;100.00
30421;BME280;17218;54.070;10.012;2022-08-19T05:16:32;101044.38;;;20.19;100.00
30421;BME280;17218;54.070;10.012;2022-08-19T05:18:59;101049.41;;;20.24;100.00
30421;BME280;17218;54.070;10.012;2022-08-19T05:21:45;101044.63;;;20.34;100.00
30421;BME280;17218;54.070;10.012;2022-08-19T05:24:30;101045.19;;;20.41;100.00
30421;BME280;17218;54.070;10.012;2022-08-19T05:27:00;101039.66;;;20.47;100.00
30421;BME280;17218;54.070;10.012;2022-08-19T05:29:29;101035.84;;;20.54;100.00
30421;BME280;17218;54.070;10.012;2022-08-19T05:31:57;101042.31;;;20.47;100.00
30421;BME280;17218;54.070;10.012;2022-08-19T05:34:25;101042.09;;;20.52;100.00
30421;BME280;17218;54.070;10.012;2022-08-19T05:36:57;101054.19;;;20.56;100.00
30421;BME280;17218;54.070;10.012;2022-08-19T05:39:26;101043.59;;;20.57;100.00
30421;BME280;17218;54.070;10.012;2022-08-19T05:41:54;101053.13;;;20.60;100.00
30421;BME280;17218;54.070;10.012;2022-08-19T05:44:23;101054.75;;;20.62;100.00
30421;BME280;17218;54.070;10.012;2022-08-19T05:46:50;101056.47;;;20.64;100.00
30421;BME280;17218;54.070;10.012;2022-08-19T05:49:19;101050.34;;;20.63;100.00
30421;BME280;17218;54.070;10.012;2022-08-19T05:51:46;101052.69;;;20.50;100.00
30421;BME280;17218;54.070;10.012;2022-08-19T05:54:14;101055.38;;;20.48;100.00
30421;BME280;17218;54.070;10.012;2022-08-19T05:56:42;101047.41;;;20.50;100.00
30421;BME280;17218;54.070;10.012;2022-08-19T05:59:10;101049.25;;;20.48;100.00
30421;BME280;17218;54.070;10.012;2022-08-19T06:01:37;101052.75;;;20.48;100.00
30421;BME280;17218;54.070;10.012;2022-08-19T06:04:04;101044.44;;;20.58;100.00
30421;BME280;17218;54.070;10.012;2022-08-19T06:06:32;101050.91;;;20.70;100.00
30421;BME280;17218;54.070;10.012;2022-08-19T06:08:59;101041.19;;;20.72;100.00
30421;BME280;17218;54.070;10.012;2022-08-19T06:11:35;101044.75;;;20.71;100.00
30421;BME280;17218;54.070;10.012;2022-08-19T06:14:04;101042.16;;;20.69;100.00
30421;BME280;17218;54.070;10.012;2022-08-19T06:16:33;101043.03;;;20.70;100.00
30421;BME280;17218;54.070;10.012;2022-08-19T06:19:02;101041.09;;;20.73;100.00
30421;BME280;17218;54.070;10.012;2022-08-19T06:21:30;101033.00;;;20.78;100.00
30421;BME280;17218;54.070;10.012;2022-08-19T06:23:57;101033.81;;;20.80;100.00
30421;BME280;17218;54.070;10.012;2022-08-19T06:26:24;101033.81;;;20.80;100.00
30421;BME280;17218;54.070;10.012;2022-08-19T06:28:53;101039.97;;;20.79;100.00
30421;BME280;17218;54.070;10.012;2022-08-19T06:31:23;101038.06;;;20.83;100.00
30421;BME280;17218;54.070;10.012;2022-08-19T06:33:50;101022.09;;;20.86;100.00
30421;BME280;17218;54.070;10.012;2022-08-19T06:36:19;101025.59;;;20.86;100.00
30421;BME280;17218;54.070;10.012;2022-08-19T06:38:45;101026.66;;;20.82;100.00
30421;BME280;17218;54.070;10.012;2022-08-19T06:41:12;101035.41;;;20.83;100.00
30421;BME280;17218;54.070;10.012;2022-08-19T06:43:38;101032.72;;;20.84;100.00
30421;BME280;17218;54.070;10.012;2022-08-19T06:46:11;101038.75;;;20.86;100.00
30421;BME280;17218;54.070;10.012;2022-08-19T06:48:38;101038.41;;;20.94;100.00
30421;BME280;17218;54.070;10.012;2022-08-19T06:51:05;101032.84;;;21.02;100.00
30421;BME280;17218;54.070;10.012;2022-08-19T06:53:32;101030.84;;;21.07;100.00
30421;BME280;17218;54.070;10.012;2022-08-19T06:55:58;101032.78;;;21.21;100.00
30421;BME280;17218;54.070;10.012;2022-08-19T06:58:27;101026.00;;;21.35;100.00
30421;BME280;17218;54.070;10.012;2022-08-19T07:00:58;101027.25;;;21.45;100.00
30421;BME280;17218;54.070;10.012;2022-08-19T07:03:28;101027.69;;;21.55;100.00
30421;BME280;17218;54.070;10.012;2022-08-19T07:05:56;101028.28;;;21.61;100.00
30421;BME280;17218;54.070;10.012;2022-08-19T07:08:24;101032.56;;;21.63;100.00
30421;BME280;17218;54.070;10.012;2022-08-19T07:10:52;101027.13;;;21.66;100.00
30421;BME280;17218;54.070;10.012;2022-08-19T07:13:20;101032.50;;;21.65;100.00
30421;BME280;17218;54.070;10.012;2022-08-19T07:15:47;101036.50;;;21.54;100.00
30421;BME280;17218;54.070;10.012;2022-08-19T07:18:16;101042.09;;;21.48;100.00
30421;BME280;17218;54.070;10.012;2022-08-19T07:20:44;101046.03;;;21.39;100.00
30421;BME280;17218;54.070;10.012;2022-08-19T07:23:11;101050.09;;;21.27;100.00
30421;BME280;17218;54.070;10.012;2022-08-19T07:25:38;101054.53;;;21.07;100.00
30421;BME280;17218;54.070;10.012;2022-08-19T07:28:05;101060.94;;;21.02;100.00
30421;BME280;17218;54.070;10.012;2022-08-19T07:30:32;101057.25;;;21.06;100.00
30421;BME280;17218;54.070;10.012;2022-08-19T07:32:59;101052.69;;;21.09;100.00
30421;BME280;17218;54.070;10.012;2022-08-19T07:35:25;101055.94;;;21.15;100.00
30421;BME280;17218;54.070;10.012;2022-08-19T07:37:54;101060.78;;;21.24;100.00
30421;BME280;17218;54.070;10.012;2022-08-19T07:40:21;101060.84;;;21.23;100.00
30421;BME280;17218;54.070;10.012;2022-08-19T07:42:48;101056.28;;;21.26;100.00
30421;BME280;17218;54.070;10.012;2022-08-19T07:45:18;101061.69;;;21.23;100.00
30421;BME280;17218;54.070;10.012;2022-08-19T07:47:45;101060.34;;;21.14;100.00
30421;BME280;17218;54.070;10.012;2022-08-19T07:50:12;101065.97;;;21.06;100.00
30421;BME280;17218;54.070;10.012;2022-08-19T07:52:41;101071.13;;;21.09;100.00
30421;BME280;17218;54.070;10.012;2022-08-19T07:55:10;101068.19;;;20.96;100.00
30421;BME280;17218;54.070;10.012;2022-08-19T07:57:37;101070.09;;;20.93;100.00
30421;BME280;17218;54.070;10.012;2022-08-19T08:00:05;101070.91;;;20.95;100.00
30421;BME280;17218;54.070;10.012;2022-08-19T08:02:32;101075.09;;;20.99;100.00
30421;BME280;17218;54.070;10.012;2022-08-19T08:04:58;101074.03;;;21.03;100.00
30421;BME280;17218;54.070;10.012;2022-08-19T08:07:42;101078.00;;;21.12;100.00
30421;BME280;17218;54.070;10.012;2022-08-19T08:10:28;101083.28;;;21.12;100.00
30421;BME280;17218;54.070;10.012;2022-08-19T08:12:54;101080.94;;;21.06;100.00
30421;BME280;17218;54.070;10.012;2022-08-19T08:15:21;101080.44;;;20.97;100.00
30421;BME280;17218;54.070;10.012;2022-08-19T08:17:47;101075.53;;;20.88;100.00
30421;BME280;17218;54.070;10.012;2022-08-19T08:20:14;101078.91;;;20.92;100.00
30421;BME280;17218;54.070;10.012;2022-08-19T08:22:43;101081.13;;;21.01;100.00
30421;BME280;17218;54.070;10.012;2022-08-19T08:25:30;101089.31;;;21.14;100.00
30421;BME280;17218;54.070;10.012;2022-08-19T08:27:59;101095.88;;;21.25;100.00
30421;BME280;17218;54.070;10.012;2022-08-19T08:30:27;101091.09;;;21.33;100.00
30421;BME280;17218;54.070;10.012;2022-08-19T08:32:55;101089.69;;;21.45;100.00
30421;BME280;17218;54.070;10.012;2022-08-19T08:35:23;101099.81;;;21.53;100.00
30421;BME280;17218;54.070;10.012;2022-08-19T08:37:52;101093.56;;;21.55;100.00
30421;BME280;17218;54.070;10.012;2022-08-19T08:40:23;101097.06;;;21.56;100.00
30421;BME280;17218;54.070;10.012;2022-08-19T08:42:58;101085.81;;;21.52;100.00
30421;BME280;17218;54.070;10.012;2022-08-19T08:45:33;101086.81;;;21.50;100.00
30421;BME280;17218;54.070;10.012;2022-08-19T08:48:11;101094.47;;;21.54;100.00
30421;BME280;17218;54.070;10.012;2022-08-19T08:50:42;101093.28;;;21.62;100.00
30421;BME280;17218;54.070;10.012;2022-08-19T08:53:14;101093.19;;;21.63;100.00
30421;BME280;17218;54.070;10.012;2022-08-19T08:55:44;101097.59;;;21.63;100.00
30421;BME280;17218;54.070;10.012;2022-08-19T08:58:16;101102.63;;;21.67;100.00
30421;BME280;17218;54.070;10.012;2022-08-19T09:00:46;101111.81;;;21.78;100.00
30421;BME280;17218;54.070;10.012;2022-08-19T09:03:18;101093.06;;;21.84;100.00
30421;BME280;17218;54.070;10.012;2022-08-19T09:05:52;101100.69;;;21.90;100.00
30421;BME280;17218;54.070;10.012;2022-08-19T09:08:33;101091.94;;;21.90;100.00
30421;BME280;17218;54.070;10.012;2022-08-19T09:11:06;101091.09;;;21.89;100.00
30421;BME280;17218;54.070;10.012;2022-08-19T09:13:42;101089.31;;;21.71;100.00
30421;BME280;17218;54.070;10.012;2022-08-19T09:16:16;101096.28;;;21.72;100.00
30421;BME280;17218;54.070;10.012;2022-08-19T09:18:48;101100.53;;;21.56;100.00
30421;BME280;17218;54.070;10.012;2022-08-19T09:21:19;101094.97;;;21.63;100.00
30421;BME280;17218;54.070;10.012;2022-08-19T09:23:46;101098.78;;;21.75;100.00
30421;BME280;17218;54.070;10.012;2022-08-19T09:26:14;101097.66;;;21.80;100.00
30421;BME280;17218;54.070;10.012;2022-08-19T09:28:44;101098.13;;;21.89;100.00
30421;BME280;17218;54.070;10.012;2022-08-19T09:31:11;101100.31;;;21.98;100.00
30421;BME280;17218;54.070;10.012;2022-08-19T09:33:38;101092.84;;;22.07;100.00
30421;BME280;17218;54.070;10.012;2022-08-19T09:36:07;101092.47;;;22.14;100.00
30421;BME280;17218;54.070;10.012;2022-08-19T09:38:35;101095.03;;;22.16;100.00
30421;BME280;17218;54.070;10.012;2022-08-19T09:41:03;101088.84;;;22.17;100.00
30421;BME280;17218;54.070;10.012;2022-08-19T09:43:31;101097.50;;;22.19;100.00
30421;BME280;17218;54.070;10.012;2022-08-19T09:46:00;101101.88;;;22.20;100.00
30421;BME280;17218;54.070;10.012;2022-08-19T09:48:26;101100.13;;;22.19;100.00
30421;BME280;17218;54.070;10.012;2022-08-19T09:50:53;101102.34;;;22.11;100.00
30421;BME280;17218;54.070;10.012;2022-08-19T09:53:20;101094.50;;;22.09;100.00
30421;BME280;17218;54.070;10.012;2022-08-19T09:55:47;101096.44;;;22.06;100.00
30421;BME280;17218;54.070;10.012;2022-08-19T09:58:14;101109.16;;;22.15;100.00
30421;BME280;17218;54.070;10.012;2022-08-19T10:00:40;101106.97;;;22.23;100.00
30421;BME280;17218;54.070;10.012;2022-08-19T10:03:08;101101.41;;;22.30;100.00
30421;BME280;17218;54.070;10.012;2022-08-19T10:05:36;101097.41;;;22.38;100.00
30421;BME280;17218;54.070;10.012;2022-08-19T10:08:17;101096.16;;;22.46;100.00
30421;BME280;17218;54.070;10.012;2022-08-19T10:10:45;101086.94;;;22.37;100.00
30421;BME280;17218;54.070;10.012;2022-08-19T10:13:13;101083.28;;;22.39;100.00
30421;BME280;17218;54.070;10.012;2022-08-19T10:15:40;101085.91;;;22.39;100.00
30421;BME280;17218;54.070;10.012;2022-08-19T10:18:08;101087.06;;;22.51;100.00
30421;BME280;17218;54.070;10.012;2022-08-19T10:20:35;101091.59;;;22.67;100.00
30421;BME280;17218;54.070;10.012;2022-08-19T10:23:02;101098.50;;;22.86;100.00
30421;BME280;17218;54.070;10.012;2022-08-19T10:25:29;101092.50;;;23.00;100.00
30421;BME280;17218;54.070;10.012;2022-08-19T10:27:56;101092.81;;;23.10;100.00
30421;BME280;17218;54.070;10.012;2022-08-19T10:30:22;101093.00;;;23.23;100.00
30421;BME280;17218;54.070;10.012;2022-08-19T10:32:49;101083.56;;;23.19;100.00
30421;BME280;17218;54.070;10.012;2022-08-19T10:35:17;101083.00;;;23.28;100.00
30421;BME280;17218;54.070;10.012;2022-08-19T10:37:43;101079.53;;;23.44;100.00
30421;BME280;17218;54.070;10.012;2022-08-19T10:40:10;101076.78;;;23.62;100.00
30421;BME280;17218;54.070;10.012;2022-08-19T10:42:37;101079.56;;;23.75;100.00
30421;BME280;17218;54.070;10.012;2022-08-19T10:45:05;101071.28;;;23.81;100.00
30421;BME280;17218;54.070;10.012;2022-08-19T10:47:33;101062.16;;;23.87;100.00
30421;BME280;17218;54.070;10.012;2022-08-19T10:50:00;101068.69;;;23.95;100.00
30421;BME280;17218;54.070;10.012;2022-08-19T10:52:50;101066.50;;;24.02;100.00
30421;BME280;17218;54.070;10.012;2022-08-19T10:55:19;101070.78;;;24.05;100.00
30421;BME280;17218;54.070;10.012;2022-08-19T10:58:14;101064.63;;;24.04;100.00
30421;BME280;17218;54.070;10.012;2022-08-19T11:00:41;101064.81;;;24.01;100.00
30421;BME280;17218;54.070;10.012;2022-08-19T11:03:08;101067.75;;;23.97;100.00
30421;BME280;17218;54.070;10.012;2022-08-19T11:05:35;101063.38;;;23.95;100.00
30421;BME280;17218;54.070;10.012;2022-08-19T11:08:04;101065.19;;;24.10;100.00
30421;BME280;17218;54.070;10.012;2022-08-19T11:10:32;101060.00;;;24.24;100.00
30421;BME280;17218;54.070;10.012;2022-08-19T11:12:59;101058.28;;;24.38;100.00
30421;BME280;17218;54.070;10.012;2022-08-19T11:15:25;101053.72;;;24.54;100.00
30421;BME280;17218;54.070;10.012;2022-08-19T11:17:53;101057.25;;;24.55;100.00
30421;BME280;17218;54.070;10.012;2022-08-19T11:20:21;101055.53;;;24.54;100.00
30421;BME280;17218;54.070;10.012;2022-08-19T11:22:51;101060.44;;;24.46;100.00
30421;BME280;17218;54.070;10.012;2022-08-19T11:25:19;101056.38;;;24.40;100.00
30421;BME280;17218;54.070;10.012;2022-08-19T11:27:46;101058.09;;;24.41;100.00
30421;BME280;17218;54.070;10.012;2022-08-19T11:30:16;101056.69;;;24.50;100.00
30421;BME280;17218;54.070;10.012;2022-08-19T11:32:42;101054.69;;;24.68;100.00
30421;BME280;17218;54.070;10.012;2022-08-19T11:35:09;101048.22;;;25.01;100.00
30421;BME280;17218;54.070;10.012;2022-08-19T11:37:36;101045.28;;;25.34;100.00
30421;BME280;17218;54.070;10.012;2022-08-19T11:40:04;101037.38;;;25.60;100.00
30421;BME280;17218;54.070;10.012;2022-08-19T11:42:32;101040.84;;;25.75;100.00
30421;BME280;17218;54.070;10.012;2022-08-19T11:45:16;101042.88;;;25.71;100.00
30421;BME280;17218;54.070;10.012;2022-08-19T11:47:43;101043.34;;;25.64;100.00
30421;BME280;17218;54.070;10.012;2022-08-19T11:50:11;101048.28;;;25.42;100.00
30421;BME280;17218;54.070;10.012;2022-08-19T11:52:37;101055.38;;;25.14;100.00
30421;BME280;17218;54.070;10.012;2022-08-19T11:55:05;101053.41;;;25.03;100.00
30421;BME280;17218;54.070;10.012;2022-08-19T11:57:33;101053.41;;;24.88;100.00
30421;BME280;17218;54.070;10.012;2022-08-19T12:00:00;101051.91;;;24.84;100.00
30421;BME280;17218;54.070;10.012;2022-08-19T12:02:28;101052.59;;;24.73;100.00
30421;BME280;17218;54.070;10.012;2022-08-19T12:04:54;101058.34;;;24.65;100.00
30421;BME280;17218;54.070;10.012;2022-08-19T12:07:21;101058.44;;;24.78;100.00
30421;BME280;17218;54.070;10.012;2022-08-19T12:09:47;101053.53;;;24.87;100.00
30421;BME280;17218;54.070;10.012;2022-08-19T12:12:14;101058.28;;;24.96;100.00
30421;BME280;17218;54.070;10.012;2022-08-19T12:14:42;101062.78;;;25.09;100.00
30421;BME280;17218;54.070;10.012;2022-08-19T12:17:09;101055.66;;;25.24;100.00
30421;BME280;17218;54.070;10.012;2022-08-19T12:19:36;101050.88;;;25.57;100.00
30421;BME280;17218;54.070;10.012;2022-08-19T12:22:04;101055.63;;;25.79;100.00
30421;BME280;17218;54.070;10.012;2022-08-19T12:24:33;101048.09;;;25.99;100.00
30421;BME280;17218;54.070;10.012;2022-08-19T12:27:00;101047.59;;;26.20;100.00
30421;BME280;17218;54.070;10.012;2022-08-19T12:29:27;101043.09;;;26.33;100.00
30421;BME280;17218;54.070;10.012;2022-08-19T12:31:57;101038.16;;;26.42;100.00
30421;BME280;17218;54.070;10.012;2022-08-19T12:34:28;101037.47;;;26.64;100.00
30421;BME280;17218;54.070;10.012;2022-08-19T12:36:56;101032.97;;;26.65;100.00